createdAt,value
2023-02-09T00:01:27.673Z,20.95
2023-02-09T00:03:54.540Z,21.92
2023-02-09T00:06:23.401Z,19.20
2023-02-09T00:08:50.605Z,20.73
2023-02-09T00:11:43.545Z,20.60
2023-02-09T00:14:11.915Z,22.58
2023-02-09T00:16:38.630Z,21.85
2023-02-09T00:19:05.428Z,23.55
2023-02-09T00:21:32.410Z,22.17
2023-02-09T00:23:59.474Z,26.20
2023-02-09T00:26:26.542Z,21.65
2023-02-09T00:28:53.085Z,24.10
2023-02-09T00:31:19.954Z,28.73
2023-02-09T00:33:46.618Z,28.92
2023-02-09T00:36:14.817Z,19.40
2023-02-09T00:38:42.737Z,23.02
2023-02-09T00:41:10.234Z,20.40
2023-02-09T00:43:36.792Z,24.73
2023-02-09T00:46:03.706Z,25.90
2023-02-09T00:48:30.717Z,21.23
2023-02-09T00:50:57.565Z,21.05
2023-02-09T00:53:24.739Z,24.58
2023-02-09T00:55:51.533Z,20.30
2023-02-09T00:58:19.059Z,21.23
2023-02-09T01:00:46.354Z,23.10
2023-02-09T01:03:13.088Z,21.45
2023-02-09T01:05:41.682Z,20.90
2023-02-09T01:08:08.578Z,23.13
2023-02-09T01:10:35.317Z,23.05
2023-02-09T01:13:01.909Z,31.75
2023-02-09T01:15:28.531Z,23.83
2023-02-09T01:17:55.283Z,24.23
2023-02-09T01:20:21.881Z,23.45
2023-02-09T01:22:48.516Z,24.67
2023-02-09T01:25:15.082Z,21.50
2023-02-09T01:27:42.319Z,27.52
2023-02-09T01:30:09.730Z,27.02
2023-02-09T01:32:37.383Z,25.33
2023-02-09T01:35:04.507Z,23.50
2023-02-09T01:37:33.125Z,22.40
2023-02-09T01:39:59.691Z,24.55
2023-02-09T01:42:26.258Z,22.13
2023-02-09T01:45:07.859Z,24.85
2023-02-09T01:47:45.895Z,24.73
2023-02-09T01:50:13.759Z,24.42
2023-02-09T01:52:41.194Z,27.30
2023-02-09T01:55:12.562Z,26.65
2023-02-09T01:57:44.318Z,26.23
2023-02-09T02:02:41.692Z,25.00
2023-02-09T02:05:09.039Z,29.20
2023-02-09T02:08:06.084Z,26.80
2023-02-09T02:10:33.048Z,32.38
2023-02-09T02:13:00.057Z,24.63
2023-02-09T02:16:25.336Z,25.50
2023-02-09T02:19:21.030Z,28.70
2023-02-09T02:22:07.923Z,32.42
2023-02-09T02:24:43.527Z,25.20
2023-02-09T02:27:36.974Z,26.60
2023-02-09T02:30:14.258Z,26.08
2023-02-09T02:32:43.563Z,22.40
2023-02-09T02:35:16.084Z,25.50
2023-02-09T02:38:01.364Z,25.65
2023-02-09T02:40:52.572Z,29.98
2023-02-09T02:43:31.000Z,31.67
2023-02-09T02:46:06.031Z,29.35
2023-02-09T02:48:47.791Z,26.17
2023-02-09T02:51:27.712Z,28.38
2023-02-09T02:53:59.296Z,27.13
2023-02-09T02:56:31.816Z,26.75
2023-02-09T02:59:03.154Z,29.30
2023-02-09T03:01:39.856Z,40.67
2023-02-09T03:04:08.589Z,35.88
2023-02-09T03:06:37.502Z,30.80
2023-02-09T03:09:04.914Z,28.38
2023-02-09T03:11:36.774Z,28.33
2023-02-09T03:14:12.387Z,28.23
2023-02-09T03:16:52.688Z,26.95
2023-02-09T03:19:46.135Z,26.50
2023-02-09T03:22:12.659Z,25.85
2023-02-09T03:25:02.925Z,25.75
2023-02-09T03:27:35.767Z,29.00
2023-02-09T03:30:04.684Z,28.60
2023-02-09T03:32:32.993Z,28.02
2023-02-09T03:35:00.034Z,26.45
2023-02-09T03:37:26.691Z,28.25
2023-02-09T03:39:53.234Z,33.95
2023-02-09T03:42:19.890Z,28.25
2023-02-09T03:44:46.488Z,26.20
2023-02-09T03:47:13.148Z,32.35
2023-02-09T03:49:41.512Z,30.80
2023-02-09T03:52:10.720Z,29.08
2023-02-09T03:54:37.686Z,28.52
2023-02-09T03:57:04.862Z,34.42
2023-02-09T03:59:35.362Z,27.85
2023-02-09T04:02:02.737Z,32.63
2023-02-09T04:04:29.369Z,26.98
2023-02-09T04:06:56.388Z,31.95
2023-02-09T04:09:24.017Z,28.00
2023-02-09T04:11:51.089Z,28.92
2023-02-09T04:14:17.652Z,27.75
2023-02-09T04:16:44.511Z,29.02
2023-02-09T04:19:11.355Z,30.15
2023-02-09T04:21:38.925Z,28.92
2023-02-09T04:24:06.486Z,32.22
2023-02-09T04:26:33.672Z,30.80
2023-02-09T04:29:00.272Z,32.85
2023-02-09T04:31:27.342Z,29.23
2023-02-09T04:33:54.006Z,38.90
2023-02-09T04:36:23.345Z,30.15
2023-02-09T04:38:50.542Z,31.73
2023-02-09T04:41:17.271Z,30.35
2023-02-09T04:43:43.834Z,31.17
2023-02-09T04:46:15.864Z,30.92
2023-02-09T04:48:43.056Z,28.42
2023-02-09T04:51:09.807Z,32.05
2023-02-09T04:53:36.633Z,31.20
2023-02-09T04:56:03.829Z,35.70
2023-02-09T04:58:49.317Z,31.50
2023-02-09T05:01:20.801Z,32.08
2023-02-09T05:03:47.410Z,29.55
2023-02-09T05:06:14.460Z,34.03
2023-02-09T05:08:41.105Z,32.63
2023-02-09T05:11:07.636Z,36.08
2023-02-09T05:13:34.823Z,29.25
2023-02-09T05:16:08.480Z,30.27
2023-02-09T05:18:36.082Z,34.28
2023-02-09T05:21:02.936Z,36.47
2023-02-09T05:23:29.921Z,33.63
2023-02-09T05:25:56.610Z,38.55
2023-02-09T05:28:24.415Z,32.60
2023-02-09T05:30:53.756Z,27.45
2023-02-09T05:33:21.871Z,30.00
2023-02-09T05:35:48.522Z,36.10
2023-02-09T05:38:15.112Z,31.30
2023-02-09T05:40:43.104Z,32.60
2023-02-09T05:43:11.433Z,30.65
2023-02-09T05:45:38.064Z,33.45
2023-02-09T05:48:04.786Z,34.25
2023-02-09T05:50:31.397Z,32.17
2023-02-09T05:53:00.800Z,33.97
2023-02-09T05:55:27.835Z,35.55
2023-02-09T05:57:54.526Z,30.80
2023-02-09T06:00:21.567Z,31.35
2023-02-09T06:02:48.107Z,33.33
2023-02-09T06:05:14.800Z,33.45
2023-02-09T06:07:41.461Z,34.08
2023-02-09T06:10:08.575Z,33.97
2023-02-09T06:12:35.180Z,33.70
2023-02-09T06:15:01.957Z,33.30
2023-02-09T06:17:28.562Z,36.13
2023-02-09T06:19:55.137Z,49.90
2023-02-09T06:22:21.691Z,41.97
2023-02-09T06:24:48.262Z,49.92
2023-02-09T06:27:14.844Z,48.30
2023-02-09T06:29:41.518Z,52.53
2023-02-09T06:32:08.176Z,50.53
2023-02-09T06:34:34.776Z,51.05
2023-02-09T06:37:01.373Z,63.72
2023-02-09T06:39:28.089Z,53.50
2023-02-09T06:41:54.655Z,55.22
2023-02-09T06:44:21.468Z,57.10
2023-02-09T06:46:48.079Z,52.58
2023-02-09T06:49:14.692Z,68.72
2023-02-09T06:51:41.455Z,63.92
2023-02-09T06:54:08.256Z,71.88
2023-02-09T06:56:34.784Z,63.17
2023-02-09T06:59:01.364Z,61.45
2023-02-09T07:01:27.964Z,50.00
2023-02-09T07:03:54.578Z,55.20
2023-02-09T07:06:22.182Z,49.22
2023-02-09T07:08:49.952Z,48.95
2023-02-09T07:11:18.303Z,50.63
2023-02-09T07:13:45.966Z,48.90
2023-02-09T07:16:13.273Z,47.38
2023-02-09T07:18:40.360Z,45.00
2023-02-09T07:21:15.623Z,56.80
2023-02-09T07:26:26.638Z,50.65
2023-02-09T07:28:53.239Z,54.70
2023-02-09T07:31:20.061Z,52.60
2023-02-09T07:33:47.148Z,59.97
2023-02-09T07:36:16.256Z,53.83
2023-02-09T07:38:43.434Z,55.70
2023-02-09T07:41:19.659Z,62.72
2023-02-09T07:43:47.124Z,63.00
2023-02-09T07:46:18.630Z,61.42
2023-02-09T07:48:45.297Z,55.30
2023-02-09T07:51:16.707Z,53.67
2023-02-09T07:53:43.417Z,56.03
2023-02-09T07:56:09.983Z,48.25
2023-02-09T07:58:36.662Z,51.38
2023-02-09T08:01:07.237Z,48.20
2023-02-09T08:03:38.792Z,48.10
2023-02-09T08:06:30.416Z,42.63
2023-02-09T08:09:04.371Z,47.95
2023-02-09T08:11:58.545Z,46.55
2023-02-09T08:14:41.698Z,51.92
2023-02-09T08:17:24.156Z,45.47
2023-02-09T08:20:00.155Z,52.88
2023-02-09T08:22:31.392Z,46.40
2023-02-09T08:24:59.537Z,46.90
2023-02-09T08:27:26.403Z,56.03
2023-02-09T08:29:53.199Z,54.72
2023-02-09T08:32:19.733Z,48.30
2023-02-09T08:34:46.298Z,50.03
2023-02-09T08:37:12.862Z,51.17
2023-02-09T08:39:39.385Z,50.15
2023-02-09T08:42:06.181Z,49.72
2023-02-09T08:44:32.884Z,51.33
2023-02-09T08:46:59.455Z,56.72
2023-02-09T08:49:26.185Z,60.20
2023-02-09T08:51:52.745Z,53.72
2023-02-09T08:54:19.720Z,53.88
2023-02-09T08:56:46.338Z,44.65
2023-02-09T08:59:13.124Z,44.40
2023-02-09T09:01:40.551Z,43.85
2023-02-09T09:04:07.695Z,43.85
2023-02-09T09:06:34.426Z,41.85
2023-02-09T09:09:01.026Z,48.33
2023-02-09T09:11:28.169Z,45.15
2023-02-09T09:13:54.725Z,48.80
2023-02-09T09:16:23.080Z,52.10
2023-02-09T09:18:50.227Z,61.53
2023-02-09T09:21:18.685Z,55.17
2023-02-09T09:23:46.528Z,120.47
2023-02-09T09:26:14.260Z,99.28
2023-02-09T09:28:40.995Z,62.63
2023-02-09T09:31:12.904Z,133.02
2023-02-09T09:33:40.395Z,110.80
2023-02-09T09:36:07.914Z,102.97
2023-02-09T09:38:35.772Z,107.60
2023-02-09T09:41:04.834Z,129.32
2023-02-09T09:43:39.851Z,71.65
2023-02-09T09:46:12.464Z,197.82
2023-02-09T09:48:49.149Z,65.75
2023-02-09T09:51:22.656Z,80.43
2023-02-09T09:53:53.381Z,49.75
2023-02-09T09:56:21.426Z,42.25
2023-02-09T09:58:49.929Z,61.67
2023-02-09T10:01:20.580Z,49.65
2023-02-09T10:03:47.662Z,52.28
2023-02-09T10:06:18.575Z,61.53
2023-02-09T10:09:03.091Z,58.25
2023-02-09T10:11:36.383Z,62.65
2023-02-09T10:14:03.041Z,60.53
2023-02-09T10:16:35.059Z,65.57
2023-02-09T10:19:04.556Z,52.95
2023-02-09T10:21:34.177Z,59.95
2023-02-09T10:24:00.655Z,51.85
2023-02-09T10:26:37.137Z,47.83
2023-02-09T10:29:24.627Z,52.08
2023-02-09T10:31:59.888Z,48.42
2023-02-09T10:34:42.982Z,101.85
2023-02-09T10:37:12.983Z,52.53
2023-02-09T10:39:40.044Z,45.40
2023-02-09T10:42:28.499Z,46.30
2023-02-09T10:44:57.645Z,45.10
2023-02-09T10:47:30.121Z,44.75
2023-02-09T10:50:18.138Z,46.85
2023-02-09T10:52:59.793Z,44.22
2023-02-09T10:55:36.421Z,45.30
2023-02-09T10:58:10.961Z,42.00
2023-02-09T11:00:47.996Z,42.42
2023-02-09T11:03:27.839Z,44.35
2023-02-09T11:06:03.725Z,40.88
2023-02-09T11:09:14.142Z,44.33
2023-02-09T11:11:41.790Z,38.13
2023-02-09T11:14:17.213Z,44.95
2023-02-09T11:16:55.624Z,47.75
2023-02-09T11:19:56.108Z,39.78
2023-02-09T11:23:05.686Z,43.75
2023-02-09T11:25:45.416Z,42.75
2023-02-09T11:28:41.111Z,46.13
2023-02-09T11:31:32.548Z,48.88
2023-02-09T11:34:14.072Z,38.30
2023-02-09T11:36:43.602Z,47.65
2023-02-09T11:39:31.759Z,37.67
2023-02-09T11:42:32.212Z,38.88
2023-02-09T11:45:10.984Z,45.17
2023-02-09T11:47:46.819Z,46.58
2023-02-09T11:50:37.845Z,46.95
2023-02-09T11:53:13.863Z,38.95
2023-02-09T11:55:48.550Z,42.08
2023-02-09T11:58:36.201Z,41.28
2023-02-09T12:01:15.131Z,42.47
2023-02-09T12:03:53.665Z,39.53
2023-02-09T12:06:23.104Z,49.22
2023-02-09T12:08:57.347Z,44.05
2023-02-09T12:11:30.656Z,44.17
2023-02-09T12:14:38.773Z,42.70
2023-02-09T12:17:31.651Z,36.33
2023-02-09T12:20:01.432Z,47.85
2023-02-09T12:22:34.100Z,38.55
2023-02-09T12:25:14.468Z,42.28
2023-02-09T12:27:43.231Z,57.80
2023-02-09T12:30:41.977Z,42.90
2023-02-09T12:33:17.330Z,42.45
2023-02-09T12:36:00.585Z,41.58
2023-02-09T12:38:53.615Z,41.78
2023-02-09T12:41:25.564Z,37.35
2023-02-09T12:44:10.542Z,39.10
2023-02-09T12:46:51.462Z,36.35
2023-02-09T12:49:21.209Z,39.75
2023-02-09T12:51:50.547Z,34.13
2023-02-09T12:54:26.394Z,43.08
2023-02-09T12:56:53.300Z,36.67
2023-02-09T12:59:23.167Z,49.50
2023-02-09T13:02:07.905Z,36.88
2023-02-09T13:04:51.250Z,39.80
2023-02-09T13:07:35.445Z,38.17
2023-02-09T13:10:09.095Z,41.33
2023-02-09T13:12:42.844Z,34.10
2023-02-09T13:15:16.018Z,35.67
2023-02-09T13:17:48.304Z,37.08
2023-02-09T13:20:45.862Z,34.83
2023-02-09T13:23:22.918Z,31.85
2023-02-09T13:25:49.562Z,31.58
2023-02-09T13:28:19.777Z,40.28
2023-02-09T13:30:46.903Z,36.03
2023-02-09T13:33:48.522Z,29.65
2023-02-09T13:37:02.504Z,39.07
2023-02-09T13:39:35.082Z,31.92
2023-02-09T13:42:01.751Z,31.13
2023-02-09T13:44:32.041Z,36.40
2023-02-09T13:47:07.261Z,38.85
2023-02-09T13:49:33.848Z,41.92
2023-02-09T13:52:12.398Z,44.35
2023-02-09T13:54:40.548Z,35.75
2023-02-09T13:57:31.881Z,37.67
2023-02-09T14:00:12.675Z,33.40
2023-02-09T14:02:39.754Z,32.78
2023-02-09T14:05:08.510Z,37.58
2023-02-09T14:07:38.362Z,35.70
2023-02-09T14:10:16.753Z,37.45
2023-02-09T14:12:52.129Z,37.22
2023-02-09T14:16:07.717Z,36.25
2023-02-09T14:18:49.508Z,38.17
2023-02-09T14:21:20.385Z,37.08
2023-02-09T14:24:13.490Z,33.72
2023-02-09T14:26:54.017Z,32.38
2023-02-09T14:29:38.138Z,35.33
2023-02-09T14:32:33.585Z,38.28
2023-02-09T14:35:19.716Z,37.63
2023-02-09T14:37:47.544Z,42.40
2023-02-09T14:40:28.282Z,40.90
2023-02-09T14:43:22.035Z,53.83
2023-02-09T14:45:59.410Z,34.38
2023-02-09T14:48:28.774Z,35.97
2023-02-09T14:51:01.681Z,24.85
2023-02-09T14:53:31.217Z,30.98
2023-02-09T14:55:58.532Z,33.05
2023-02-09T14:58:30.888Z,28.85
2023-02-09T15:01:00.495Z,31.88
2023-02-09T15:03:27.507Z,28.23
2023-02-09T15:06:05.654Z,25.15
2023-02-09T15:08:36.430Z,22.77
2023-02-09T15:11:27.681Z,27.10
2023-02-09T15:13:59.934Z,24.83
2023-02-09T15:16:26.558Z,33.92
2023-02-09T15:18:53.169Z,33.40
2023-02-09T15:21:19.721Z,26.48
2023-02-09T15:23:46.317Z,20.27
2023-02-09T15:26:26.657Z,24.48
2023-02-09T15:28:53.863Z,22.55
2023-02-09T15:31:20.464Z,21.73
2023-02-09T15:33:47.191Z,20.85
2023-02-09T15:36:19.409Z,21.05
2023-02-09T15:38:46.281Z,20.23
2023-02-09T15:41:31.351Z,23.33
2023-02-09T15:44:17.271Z,26.60
2023-02-09T15:47:04.746Z,22.27
2023-02-09T15:49:32.003Z,22.00
2023-02-09T15:51:58.640Z,20.77
2023-02-09T15:54:32.835Z,23.65
2023-02-09T15:57:01.066Z,20.38
2023-02-09T15:59:27.663Z,18.95
2023-02-09T16:01:54.336Z,29.35
2023-02-09T16:04:20.984Z,23.88
2023-02-09T16:06:53.117Z,20.63
2023-02-09T16:09:23.986Z,26.13
2023-02-09T16:11:50.682Z,21.73
2023-02-09T16:14:23.130Z,22.42
2023-02-09T16:16:50.265Z,24.88
2023-02-09T16:19:17.312Z,23.15
2023-02-09T16:21:47.882Z,26.50
2023-02-09T16:24:47.219Z,21.88
2023-02-09T16:27:23.769Z,26.40
2023-02-09T16:29:50.554Z,21.48
2023-02-09T16:32:19.108Z,25.92
2023-02-09T16:34:45.906Z,25.70
2023-02-09T16:37:18.366Z,29.83
2023-02-09T16:39:45.794Z,28.95
2023-02-09T16:42:14.782Z,23.77
2023-02-09T16:44:42.350Z,26.25
2023-02-09T16:47:21.492Z,24.52
2023-02-09T16:49:57.791Z,28.42
2023-02-09T16:52:27.715Z,24.50
2023-02-09T16:55:00.941Z,26.02
2023-02-09T16:57:28.940Z,19.65
2023-02-09T16:59:56.249Z,22.13
2023-02-09T17:02:31.948Z,21.60
2023-02-09T17:04:59.405Z,23.70
2023-02-09T17:07:39.817Z,29.13
2023-02-09T17:10:17.119Z,23.08
2023-02-09T17:12:44.024Z,20.27
2023-02-09T17:15:29.017Z,25.23
2023-02-09T17:18:02.306Z,22.77
2023-02-09T17:20:35.502Z,22.73
2023-02-09T17:23:02.099Z,23.42
2023-02-09T17:25:28.789Z,22.50
2023-02-09T17:27:55.435Z,27.02
2023-02-09T17:30:22.011Z,20.83
2023-02-09T17:32:55.621Z,25.13
2023-02-09T17:35:44.588Z,27.55
2023-02-09T17:38:21.982Z,20.00
2023-02-09T17:40:49.495Z,29.92
2023-02-09T17:43:16.270Z,28.02
2023-02-09T17:45:47.786Z,26.98
2023-02-09T17:48:16.566Z,29.38
2023-02-09T17:50:48.658Z,28.83
2023-02-09T17:53:24.141Z,28.98
2023-02-09T17:55:54.048Z,27.98
2023-02-09T17:58:20.597Z,26.67
2023-02-09T18:00:47.137Z,25.10
2023-02-09T18:03:19.381Z,27.98
2023-02-09T18:05:51.037Z,31.15
2023-02-09T18:08:18.911Z,31.65
2023-02-09T18:10:45.483Z,31.80
2023-02-09T18:13:20.661Z,30.83
2023-02-09T18:15:48.805Z,31.40
2023-02-09T18:18:15.971Z,31.70
2023-02-09T18:20:42.703Z,30.48
2023-02-09T18:23:15.028Z,31.13
2023-02-09T18:25:41.657Z,29.48
2023-02-09T18:28:08.734Z,28.33
2023-02-09T18:30:38.360Z,29.65
2023-02-09T18:33:07.057Z,29.10
2023-02-09T18:35:39.549Z,33.63
2023-02-09T18:38:08.848Z,27.77
2023-02-09T18:40:36.853Z,34.97
2023-02-09T18:43:04.975Z,28.45
2023-02-09T18:45:32.196Z,34.08
2023-02-09T18:47:59.299Z,29.75
2023-02-09T18:50:31.694Z,34.13
2023-02-09T18:53:00.616Z,26.77
2023-02-09T18:55:29.683Z,28.02
2023-02-09T18:57:59.114Z,23.83
2023-02-09T19:00:26.450Z,28.65
2023-02-09T19:02:57.474Z,27.25
2023-02-09T19:05:26.253Z,29.50
2023-02-09T19:07:53.316Z,32.45
2023-02-09T19:10:21.188Z,25.83
2023-02-09T19:12:47.859Z,30.40
2023-02-09T19:15:18.633Z,28.25
2023-02-09T19:17:45.897Z,28.27
2023-02-09T19:20:16.603Z,29.08
2023-02-09T19:22:43.261Z,31.25
2023-02-09T19:25:10.074Z,30.02
2023-02-09T19:27:37.647Z,29.25
2023-02-09T19:30:05.079Z,25.60
2023-02-09T19:32:32.107Z,25.60
2023-02-09T19:34:58.711Z,26.77
2023-02-09T19:37:25.428Z,34.08
2023-02-09T19:40:04.402Z,26.15
2023-02-09T19:42:32.861Z,28.50
2023-02-09T19:45:00.353Z,33.10
2023-02-09T19:47:27.513Z,27.73
2023-02-09T19:49:55.802Z,27.77
2023-02-09T19:52:23.380Z,36.13
2023-02-09T19:54:50.683Z,32.20
2023-02-09T19:57:18.975Z,30.08
2023-02-09T19:59:45.789Z,32.08
2023-02-09T20:02:13.646Z,36.38
2023-02-09T20:04:41.146Z,24.88
2023-02-09T20:07:07.695Z,36.47
2023-02-09T20:09:34.876Z,28.30
2023-02-09T20:12:01.519Z,30.60
2023-02-09T20:14:31.351Z,28.40
2023-02-09T20:16:59.632Z,27.30
2023-02-09T20:19:26.596Z,25.70
2023-02-09T20:21:53.175Z,27.52
2023-02-09T20:24:19.945Z,31.70
2023-02-09T20:26:46.713Z,31.42
2023-02-09T20:29:13.717Z,30.45
2023-02-09T20:31:42.141Z,31.95
2023-02-09T20:34:12.331Z,29.33
2023-02-09T20:36:41.325Z,25.08
2023-02-09T20:39:10.946Z,31.27
2023-02-09T20:41:37.477Z,26.42
2023-02-09T20:44:22.628Z,31.10
2023-02-09T20:46:57.738Z,28.40
2023-02-09T20:49:31.084Z,24.75
2023-02-09T20:51:58.531Z,26.38
2023-02-09T20:54:25.319Z,27.10
2023-02-09T20:56:51.907Z,26.05
2023-02-09T20:59:18.622Z,29.75
2023-02-09T21:01:46.008Z,29.52
2023-02-09T21:04:12.837Z,29.90
2023-02-09T21:06:39.457Z,30.60
2023-02-09T21:09:08.230Z,37.05
2023-02-09T21:11:35.084Z,24.63
2023-02-09T21:14:02.029Z,31.90
2023-02-09T21:16:29.028Z,30.45
2023-02-09T21:18:55.622Z,31.88
2023-02-09T21:21:22.724Z,30.02
2023-02-09T21:23:49.342Z,29.27
2023-02-09T21:26:18.149Z,30.52
2023-02-09T21:28:45.386Z,42.42
2023-02-09T21:31:13.939Z,32.90
2023-02-09T21:33:40.524Z,32.42
2023-02-09T21:36:07.669Z,33.55
2023-02-09T21:38:36.999Z,34.45
2023-02-09T21:41:09.364Z,32.35
2023-02-09T21:43:35.978Z,37.13
2023-02-09T21:46:02.655Z,33.08
2023-02-09T21:48:29.243Z,31.15
2023-02-09T21:50:56.093Z,32.80
2023-02-09T21:53:22.758Z,34.75
2023-02-09T21:55:49.305Z,29.95
2023-02-09T21:58:15.845Z,28.55
2023-02-09T22:00:42.512Z,29.33
2023-02-09T22:03:09.492Z,27.75
2023-02-09T22:05:36.062Z,31.25
2023-02-09T22:08:02.601Z,35.35
2023-02-09T22:10:29.125Z,31.70
2023-02-09T22:12:55.682Z,29.27
2023-02-09T22:15:22.279Z,29.90
2023-02-09T22:17:49.281Z,30.63
2023-02-09T22:20:15.890Z,27.23
2023-02-09T22:22:45.303Z,27.40
2023-02-09T22:25:11.853Z,26.65
2023-02-09T22:27:38.455Z,27.13
2023-02-09T22:30:05.229Z,27.67
2023-02-09T22:32:31.793Z,28.52
2023-02-09T22:34:58.330Z,31.20
2023-02-09T22:37:24.921Z,36.00
2023-02-09T22:39:51.477Z,31.50
2023-02-09T22:42:18.129Z,36.55
2023-02-09T22:44:44.664Z,34.00
2023-02-09T22:47:11.313Z,32.28
2023-02-09T22:49:37.852Z,35.75
2023-02-09T22:52:04.541Z,32.40
2023-02-09T22:54:31.121Z,33.80
2023-02-09T22:56:57.678Z,30.77
2023-02-09T22:59:24.261Z,29.98
2023-02-09T23:01:50.824Z,30.95
2023-02-09T23:04:17.490Z,30.00
2023-02-09T23:06:44.220Z,28.48
2023-02-09T23:09:12.576Z,31.83
2023-02-09T23:11:39.372Z,30.35
2023-02-09T23:14:10.052Z,29.50
2023-02-09T23:16:38.696Z,33.13
2023-02-09T23:19:07.429Z,31.25
2023-02-09T23:21:37.195Z,32.45
2023-02-09T23:24:05.037Z,32.47
2023-02-09T23:26:32.047Z,29.85
2023-02-09T23:29:00.948Z,29.98
2023-02-09T23:31:27.867Z,30.88
2023-02-09T23:33:54.754Z,27.90
2023-02-09T23:36:24.237Z,33.50
2023-02-09T23:38:56.860Z,31.25
2023-02-09T23:41:24.199Z,33.90
2023-02-09T23:43:51.789Z,33.92
2023-02-09T23:46:22.590Z,31.33
2023-02-09T23:48:50.098Z,36.07
2023-02-09T23:51:21.601Z,34.58
2023-02-09T23:53:48.433Z,35.20
2023-02-09T23:56:17.379Z,36.50
2023-02-09T23:58:46.432Z,32.42
